sensor_id;sensor_type;location;lat;lon;timestamp;pressure;altitude;pressure_sealevel;temperature;humidity
20860;BME280;10590;48.154;11.514;2023-05-02T00:03:35;95759.25;;;9.48;90.24
20860;BME280;10590;48.154;11.514;2023-05-02T00:08:57;95760.41;;;9.33;89.96
20860;BME280;10590;48.154;11.514;2023-05-02T00:14:19;95752.56;;;9.28;89.72
20860;BME280;10590;48.154;11.514;2023-05-02T00:19:43;95752.91;;;9.35;90.27
20860;BME280;10590;48.154;11.514;2023-05-02T00:25:06;95755.81;;;9.25;90.14
20860;BME280;10590;48.154;11.514;2023-05-02T00:30:28;95756.44;;;9.22;90.38
20860;BME280;10590;48.154;11.514;2023-05-02T00:35:51;95753.03;;;9.08;90.11
20860;BME280;10590;48.154;11.514;2023-05-02T00:41:13;95756.91;;;9.02;90.24
20860;BME280;10590;48.154;11.514;2023-05-02T00:46:37;95751.59;;;9.02;90.15
20860;BME280;10590;48.154;11.514;2023-05-02T00:52:00;95750.50;;;9.03;90.08
20860;BME280;10590;48.154;11.514;2023-05-02T00:57:22;95751.50;;;8.93;90.24
20860;BME280;10590;48.154;11.514;2023-05-02T01:02:49;95752.94;;;8.77;90.47
20860;BME280;10590;48.154;11.514;2023-05-02T01:08:19;95757.78;;;8.75;90.67
20860;BME280;10590;48.154;11.514;2023-05-02T01:13:47;95757.28;;;8.73;90.74
20860;BME280;10590;48.154;11.514;2023-05-02T01:19:18;95757.09;;;8.69;90.34
20860;BME280;10590;48.154;11.514;2023-05-02T01:24:51;95753.72;;;8.63;90.62
20860;BME280;10590;48.154;11.514;2023-05-02T01:30:18;95759.84;;;8.64;90.38
20860;BME280;10590;48.154;11.514;2023-05-02T01:35:42;95766.66;;;8.70;89.61
20860;BME280;10590;48.154;11.514;2023-05-02T01:41:06;95764.59;;;8.67;89.62
20860;BME280;10590;48.154;11.514;2023-05-02T01:46:32;95763.88;;;8.75;89.37
20860;BME280;10590;48.154;11.514;2023-05-02T01:51:55;95759.84;;;8.64;89.38
20860;BME280;10590;48.154;11.514;2023-05-02T01:57:20;95768.72;;;8.59;89.54
20860;BME280;10590;48.154;11.514;2023-05-02T02:02:45;95774.81;;;8.60;89.55
20860;BME280;10590;48.154;11.514;2023-05-02T02:08:08;95774.94;;;8.55;89.45
20860;BME280;10590;48.154;11.514;2023-05-02T02:13:34;95784.69;;;8.46;89.70
20860;BME280;10590;48.154;11.514;2023-05-02T02:19:03;95784.69;;;8.46;89.67
20860;BME280;10590;48.154;11.514;2023-05-02T02:24:26;95788.03;;;8.51;89.53
20860;BME280;10590;48.154;11.514;2023-05-02T02:29:49;95791.09;;;8.45;89.69
20860;BME280;10590;48.154;11.514;2023-05-02T02:35:12;95795.91;;;8.43;89.66
20860;BME280;10590;48.154;11.514;2023-05-02T02:40:40;95796.41;;;8.45;89.68
20860;BME280;10590;48.154;11.514;2023-05-02T02:46:16;95795.34;;;8.46;89.34
20860;BME280;10590;48.154;11.514;2023-05-02T02:51:50;95798.00;;;8.46;88.97
20860;BME280;10590;48.154;11.514;2023-05-02T02:57:16;95801.63;;;8.50;89.12
20860;BME280;10590;48.154;11.514;2023-05-02T03:02:40;95802.41;;;8.50;89.05
20860;BME280;10590;48.154;11.514;2023-05-02T03:08:04;95818.06;;;8.52;89.08
20860;BME280;10590;48.154;11.514;2023-05-02T03:13:27;95818.38;;;8.50;88.43
20860;BME280;10590;48.154;11.514;2023-05-02T03:18:48;95810.09;;;8.52;88.55
20860;BME280;10590;48.154;11.514;2023-05-02T03:24:12;95818.47;;;8.59;88.37
20860;BME280;10590;48.154;11.514;2023-05-02T03:29:34;95825.66;;;8.45;88.27
20860;BME280;10590;48.154;11.514;2023-05-02T03:34:56;95827.44;;;8.36;88.69
20860;BME280;10590;48.154;11.514;2023-05-02T03:40:20;95825.94;;;8.29;88.69
20860;BME280;10590;48.154;11.514;2023-05-02T03:45:42;95829.97;;;8.13;89.17
20860;BME280;10590;48.154;11.514;2023-05-02T03:51:04;95832.72;;;8.22;88.86
20860;BME280;10590;48.154;11.514;2023-05-02T03:56:29;95839.81;;;8.26;88.79
20860;BME280;10590;48.154;11.514;2023-05-02T04:01:51;95858.22;;;8.23;88.79
20860;BME280;10590;48.154;11.514;2023-05-02T04:07:13;95856.34;;;8.23;88.89
20860;BME280;10590;48.154;11.514;2023-05-02T04:12:40;95873.13;;;8.38;88.52
20860;BME280;10590;48.154;11.514;2023-05-02T04:18:02;95872.69;;;8.30;88.50
20860;BME280;10590;48.154;11.514;2023-05-02T04:23:24;95870.84;;;8.31;88.16
20860;BME280;10590;48.154;11.514;2023-05-02T04:28:47;95883.78;;;8.38;87.74
20860;BME280;10590;48.154;11.514;2023-05-02T04:34:09;95881.22;;;8.46;87.38
20860;BME280;10590;48.154;11.514;2023-05-02T04:39:31;95882.19;;;8.50;86.85
20860;BME280;10590;48.154;11.514;2023-05-02T04:44:54;95888.69;;;8.58;86.88
20860;BME280;10590;48.154;11.514;2023-05-02T04:50:16;95899.03;;;8.59;87.39
20860;BME280;10590;48.154;11.514;2023-05-02T04:55:38;95914.53;;;8.71;86.51
20860;BME280;10590;48.154;11.514;2023-05-02T05:01:01;95916.81;;;8.78;85.98
20860;BME280;10590;48.154;11.514;2023-05-02T05:06:23;95927.34;;;8.97;85.86
20860;BME280;10590;48.154;11.514;2023-05-02T05:11:45;95925.97;;;8.99;85.71
20860;BME280;10590;48.154;11.514;2023-05-02T05:17:09;95931.38;;;9.08;85.89
20860;BME280;10590;48.154;11.514;2023-05-02T05:22:31;95936.59;;;9.26;84.33
20860;BME280;10590;48.154;11.514;2023-05-02T05:27:58;95940.00;;;9.41;84.21
20860;BME280;10590;48.154;11.514;2023-05-02T05:33:22;95940.91;;;9.36;84.19
20860;BME280;10590;48.154;11.514;2023-05-02T05:38:44;95951.03;;;9.48;84.48
20860;BME280;10590;48.154;11.514;2023-05-02T05:44:06;95958.13;;;9.52;83.49
20860;BME280;10590;48.154;11.514;2023-05-02T05:49:29;95961.53;;;9.80;82.66
20860;BME280;10590;48.154;11.514;2023-05-02T05:54:52;95970.06;;;9.69;83.34
20860;BME280;10590;48.154;11.514;2023-05-02T06:00:15;95980.31;;;9.75;82.96
20860;BME280;10590;48.154;11.514;2023-05-02T06:05:38;95974.78;;;9.72;82.67
20860;BME280;10590;48.154;11.514;2023-05-02T06:11:00;95983.81;;;10.20;82.10
20860;BME280;10590;48.154;11.514;2023-05-02T06:16:22;95994.00;;;10.63;80.79
20860;BME280;10590;48.154;11.514;2023-05-02T06:21:45;95991.13;;;10.15;80.50
20860;BME280;10590;48.154;11.514;2023-05-02T06:27:07;95992.69;;;10.52;80.26
20860;BME280;10590;48.154;11.514;2023-05-02T06:32:29;95998.25;;;10.42;79.89
20860;BME280;10590;48.154;11.514;2023-05-02T06:37:52;96015.47;;;10.89;78.54
20860;BME280;10590;48.154;11.514;2023-05-02T06:43:15;96005.72;;;11.24;77.74
20860;BME280;10590;48.154;11.514;2023-05-02T06:48:37;96016.28;;;11.29;78.36
20860;BME280;10590;48.154;11.514;2023-05-02T06:54:00;96019.91;;;11.33;77.76
20860;BME280;10590;48.154;11.514;2023-05-02T06:59:22;96033.28;;;11.33;76.43
20860;BME280;10590;48.154;11.514;2023-05-02T07:04:43;96036.81;;;11.60;75.34
20860;BME280;10590;48.154;11.514;2023-05-02T07:10:08;96030.97;;;11.49;75.77
20860;BME280;10590;48.154;11.514;2023-05-02T07:15:30;96034.06;;;11.82;74.69
20860;BME280;10590;48.154;11.514;2023-05-02T07:20:52;96030.97;;;12.32;73.62
20860;BME280;10590;48.154;11.514;2023-05-02T07:26:16;96030.44;;;11.78;74.55
20860;BME280;10590;48.154;11.514;2023-05-02T07:31:38;96040.50;;;11.81;74.98
20860;BME280;10590;48.154;11.514;2023-05-02T07:37:00;96038.56;;;11.73;75.07
20860;BME280;10590;48.154;11.514;2023-05-02T07:42:27;96045.59;;;12.17;74.56
20860;BME280;10590;48.154;11.514;2023-05-02T07:47:49;96051.25;;;12.59;72.30
20860;BME280;10590;48.154;11.514;2023-05-02T07:53:11;96050.75;;;12.65;71.81
20860;BME280;10590;48.154;11.514;2023-05-02T07:58:35;96057.31;;;12.94;71.13
20860;BME280;10590;48.154;11.514;2023-05-02T08:03:57;96056.97;;;13.13;70.28
20860;BME280;10590;48.154;11.514;2023-05-02T08:09:19;96061.00;;;14.03;67.74
20860;BME280;10590;48.154;11.514;2023-05-02T08:14:42;96070.84;;;13.61;68.20
20860;BME280;10590;48.154;11.514;2023-05-02T08:20:05;96058.91;;;14.72;65.24
20860;BME280;10590;48.154;11.514;2023-05-02T08:25:27;96067.69;;;14.39;65.92
20860;BME280;10590;48.154;11.514;2023-05-02T08:30:51;96066.41;;;13.65;66.59
20860;BME280;10590;48.154;11.514;2023-05-02T08:36:14;96067.56;;;14.77;64.43
20860;BME280;10590;48.154;11.514;2023-05-02T08:41:37;96071.56;;;14.50;65.13
20860;BME280;10590;48.154;11.514;2023-05-02T08:47:00;96070.97;;;14.65;64.00
20860;BME280;10590;48.154;11.514;2023-05-02T08:52:23;96078.66;;;13.75;68.20
20860;BME280;10590;48.154;11.514;2023-05-02T08:57:46;96073.31;;;14.88;63.50
20860;BME280;10590;48.154;11.514;2023-05-02T09:03:19;96079.16;;;14.90;64.32
20860;BME280;10590;48.154;11.514;2023-05-02T09:08:44;96083.78;;;13.97;65.61
20860;BME280;10590;48.154;11.514;2023-05-02T09:14:13;96090.88;;;14.23;67.90
20860;BME280;10590;48.154;11.514;2023-05-02T09:19:37;96097.78;;;14.03;66.35
20860;BME280;10590;48.154;11.514;2023-05-02T09:24:59;96097.38;;;14.43;65.74
20860;BME280;10590;48.154;11.514;2023-05-02T09:30:22;96101.09;;;14.92;64.09
20860;BME280;10590;48.154;11.514;2023-05-02T09:35:52;96101.88;;;15.83;60.85
20860;BME280;10590;48.154;11.514;2023-05-02T09:41:14;96106.34;;;15.34;61.47
20860;BME280;10590;48.154;11.514;2023-05-02T09:46:41;96110.16;;;15.78;61.02
20860;BME280;10590;48.154;11.514;2023-05-02T09:52:10;96116.13;;;15.38;62.41
20860;BME280;10590;48.154;11.514;2023-05-02T09:57:39;96102.97;;;15.24;61.60
20860;BME280;10590;48.154;11.514;2023-05-02T10:03:03;96105.47;;;15.29;60.42
20860;BME280;10590;48.154;11.514;2023-05-02T10:08:28;96111.31;;;15.56;59.11
20860;BME280;10590;48.154;11.514;2023-05-02T10:13:50;96098.75;;;15.36;60.64
20860;BME280;10590;48.154;11.514;2023-05-02T10:19:18;96112.69;;;16.35;58.80
20860;BME280;10590;48.154;11.514;2023-05-02T10:24:45;96109.06;;;16.68;57.54
20860;BME280;10590;48.154;11.514;2023-05-02T10:30:09;96100.78;;;16.88;55.42
20860;BME280;10590;48.154;11.514;2023-05-02T10:35:35;96107.84;;;16.53;57.43
20860;BME280;10590;48.154;11.514;2023-05-02T10:41:02;96102.44;;;15.31;60.29
20860;BME280;10590;48.154;11.514;2023-05-02T10:46:29;96112.38;;;13.47;68.95
20860;BME280;10590;48.154;11.514;2023-05-02T10:51:53;96110.75;;;11.73;70.57
20860;BME280;10590;48.154;11.514;2023-05-02T10:57:16;96124.41;;;10.78;78.49
20860;BME280;10590;48.154;11.514;2023-05-02T11:02:48;96115.06;;;10.90;83.70
20860;BME280;10590;48.154;11.514;2023-05-02T11:08:29;96120.81;;;11.05;86.27
20860;BME280;10590;48.154;11.514;2023-05-02T11:13:53;96113.28;;;11.38;85.89
20860;BME280;10590;48.154;11.514;2023-05-02T11:19:15;96118.44;;;11.66;85.49
20860;BME280;10590;48.154;11.514;2023-05-02T11:24:38;96120.25;;;11.79;84.44
20860;BME280;10590;48.154;11.514;2023-05-02T11:30:02;96121.47;;;12.21;84.81
20860;BME280;10590;48.154;11.514;2023-05-02T11:35:26;96119.44;;;12.44;83.24
20860;BME280;10590;48.154;11.514;2023-05-02T11:40:52;96131.88;;;12.57;81.79
20860;BME280;10590;48.154;11.514;2023-05-02T11:46:15;96133.13;;;13.20;80.75
20860;BME280;10590;48.154;11.514;2023-05-02T11:51:39;96132.03;;;12.69;79.71
20860;BME280;10590;48.154;11.514;2023-05-02T11:57:01;96127.31;;;12.75;80.87
20860;BME280;10590;48.154;11.514;2023-05-02T12:02:35;96123.19;;;12.95;80.60
20860;BME280;10590;48.154;11.514;2023-05-02T12:07:57;96136.75;;;12.90;79.24
20860;BME280;10590;48.154;11.514;2023-05-02T12:13:22;96133.59;;;12.62;80.21
20860;BME280;10590;48.154;11.514;2023-05-02T12:18:47;96126.03;;;12.81;79.24
20860;BME280;10590;48.154;11.514;2023-05-02T12:24:09;96126.84;;;12.56;78.52
20860;BME280;10590;48.154;11.514;2023-05-02T12:29:38;96129.03;;;12.62;80.43
20860;BME280;10590;48.154;11.514;2023-05-02T12:35:02;96133.94;;;13.59;75.40
20860;BME280;10590;48.154;11.514;2023-05-02T12:40:24;96126.13;;;14.13;74.46
20860;BME280;10590;48.154;11.514;2023-05-02T12:45:47;96123.91;;;14.15;73.08
20860;BME280;10590;48.154;11.514;2023-05-02T12:51:21;96123.72;;;14.20;72.13
20860;BME280;10590;48.154;11.514;2023-05-02T12:56:43;96127.47;;;14.78;68.69
20860;BME280;10590;48.154;11.514;2023-05-02T13:02:06;96128.53;;;15.30;66.46
20860;BME280;10590;48.154;11.514;2023-05-02T13:07:29;96124.53;;;14.41;65.22
20860;BME280;10590;48.154;11.514;2023-05-02T13:12:52;96121.22;;;15.19;66.52
20860;BME280;10590;48.154;11.514;2023-05-02T13:18:14;96130.53;;;14.68;68.06
20860;BME280;10590;48.154;11.514;2023-05-02T13:23:37;96129.22;;;14.74;66.54
20860;BME280;10590;48.154;11.514;2023-05-02T13:29:00;96141.59;;;14.45;69.67
20860;BME280;10590;48.154;11.514;2023-05-02T13:34:22;96138.06;;;13.94;68.25
20860;BME280;10590;48.154;11.514;2023-05-02T13:39:45;96138.31;;;14.10;69.56
20860;BME280;10590;48.154;11.514;2023-05-02T13:45:08;96140.34;;;13.75;67.68
20860;BME280;10590;48.154;11.514;2023-05-02T13:50:30;96142.81;;;13.97;66.61
20860;BME280;10590;48.154;11.514;2023-05-02T13:55:58;96146.69;;;13.70;66.63
20860;BME280;10590;48.154;11.514;2023-05-02T14:01:20;96145.75;;;13.66;65.11
20860;BME280;10590;48.154;11.514;2023-05-02T14:06:41;96156.84;;;13.56;64.83
20860;BME280;10590;48.154;11.514;2023-05-02T14:12:05;96162.28;;;12.79;67.65
20860;BME280;10590;48.154;11.514;2023-05-02T14:17:27;96159.38;;;12.23;68.13
20860;BME280;10590;48.154;11.514;2023-05-02T14:22:49;96164.75;;;11.84;70.36
20860;BME280;10590;48.154;11.514;2023-05-02T14:28:12;96159.34;;;11.75;70.73
20860;BME280;10590;48.154;11.514;2023-05-02T14:33:34;96161.41;;;11.38;71.59
20860;BME280;10590;48.154;11.514;2023-05-02T14:38:56;96157.63;;;11.39;69.50
20860;BME280;10590;48.154;11.514;2023-05-02T14:44:19;96166.25;;;11.36;70.54
20860;BME280;10590;48.154;11.514;2023-05-02T14:49:41;96165.38;;;11.49;70.40
20860;BME280;10590;48.154;11.514;2023-05-02T14:55:04;96163.38;;;11.95;69.04
20860;BME280;10590;48.154;11.514;2023-05-02T15:00:27;96160.69;;;12.60;66.80
20860;BME280;10590;48.154;11.514;2023-05-02T15:05:49;96157.25;;;13.03;64.94
20860;BME280;10590;48.154;11.514;2023-05-02T15:11:11;96158.81;;;12.69;64.57
20860;BME280;10590;48.154;11.514;2023-05-02T15:16:35;96170.16;;;13.01;64.07
20860;BME280;10590;48.154;11.514;2023-05-02T15:21:58;96152.81;;;12.90;62.82
20860;BME280;10590;48.154;11.514;2023-05-02T15:27:21;96151.91;;;14.34;59.13
20860;BME280;10590;48.154;11.514;2023-05-02T15:32:44;96150.19;;;15.79;56.20
20860;BME280;10590;48.154;11.514;2023-05-02T15:38:06;96147.25;;;16.58;53.43
20860;BME280;10590;48.154;11.514;2023-05-02T15:43:28;96157.47;;;14.00;60.73
20860;BME280;10590;48.154;11.514;2023-05-02T15:48:52;96166.06;;;13.12;63.67
20860;BME280;10590;48.154;11.514;2023-05-02T15:54:14;96168.25;;;13.10;63.01
20860;BME280;10590;48.154;11.514;2023-05-02T15:59:36;96169.19;;;13.31;63.00
20860;BME280;10590;48.154;11.514;2023-05-02T16:04:59;96167.31;;;13.32;60.48
20860;BME280;10590;48.154;11.514;2023-05-02T16:10:21;96174.88;;;12.95;62.98
20860;BME280;10590;48.154;11.514;2023-05-02T16:15:43;96181.94;;;12.48;63.33
20860;BME280;10590;48.154;11.514;2023-05-02T16:21:08;96202.56;;;12.39;64.76
20860;BME280;10590;48.154;11.514;2023-05-02T16:26:31;96225.22;;;12.33;66.47
20860;BME280;10590;48.154;11.514;2023-05-02T16:31:53;96242.16;;;11.89;69.39
20860;BME280;10590;48.154;11.514;2023-05-02T16:37:16;96257.22;;;11.31;75.92
20860;BME280;10590;48.154;11.514;2023-05-02T16:42:39;96269.31;;;10.93;79.25
20860;BME280;10590;48.154;11.514;2023-05-02T16:48:01;96281.53;;;10.58;79.07
20860;BME280;10590;48.154;11.514;2023-05-02T16:53:25;96285.56;;;10.28;79.82
20860;BME280;10590;48.154;11.514;2023-05-02T16:58:47;96297.97;;;10.18;81.05
20860;BME280;10590;48.154;11.514;2023-05-02T17:04:09;96306.06;;;10.00;80.91
20860;BME280;10590;48.154;11.514;2023-05-02T17:09:33;96301.97;;;9.75;83.52
20860;BME280;10590;48.154;11.514;2023-05-02T17:14:55;96302.50;;;9.90;82.68
20860;BME280;10590;48.154;11.514;2023-05-02T17:20:17;96304.84;;;9.78;83.63
20860;BME280;10590;48.154;11.514;2023-05-02T17:25:41;96295.22;;;9.64;84.95
20860;BME280;10590;48.154;11.514;2023-05-02T17:31:03;96289.41;;;9.62;86.33
20860;BME280;10590;48.154;11.514;2023-05-02T17:36:25;96283.41;;;9.70;86.59
20860;BME280;10590;48.154;11.514;2023-05-02T17:41:48;96273.78;;;9.55;87.58
20860;BME280;10590;48.154;11.514;2023-05-02T17:47:10;96270.41;;;9.82;86.06
20860;BME280;10590;48.154;11.514;2023-05-02T17:52:32;96273.44;;;9.75;85.79
20860;BME280;10590;48.154;11.514;2023-05-02T17:57:56;96291.22;;;9.80;86.13
20860;BME280;10590;48.154;11.514;2023-05-02T18:03:19;96286.47;;;9.44;88.42
20860;BME280;10590;48.154;11.514;2023-05-02T18:08:40;96297.88;;;9.96;86.07
20860;BME280;10590;48.154;11.514;2023-05-02T18:14:04;96301.53;;;10.00;84.55
20860;BME280;10590;48.154;11.514;2023-05-02T18:19:26;96304.50;;;10.12;84.43
20860;BME280;10590;48.154;11.514;2023-05-02T18:24:48;96312.97;;;10.01;85.83
20860;BME280;10590;48.154;11.514;2023-05-02T18:30:12;96309.88;;;9.80;85.29
20860;BME280;10590;48.154;11.514;2023-05-02T18:35:34;96317.53;;;9.68;84.59
20860;BME280;10590;48.154;11.514;2023-05-02T18:40:58;96315.88;;;9.72;85.22
20860;BME280;10590;48.154;11.514;2023-05-02T18:46:22;96325.47;;;9.73;85.54
20860;BME280;10590;48.154;11.514;2023-05-02T18:51:44;96326.53;;;9.72;85.87
20860;BME280;10590;48.154;11.514;2023-05-02T18:57:06;96338.44;;;9.61;85.98
20860;BME280;10590;48.154;11.514;2023-05-02T19:02:29;96350.31;;;9.49;86.72
20860;BME280;10590;48.154;11.514;2023-05-02T19:07:51;96345.44;;;9.19;87.90
20860;BME280;10590;48.154;11.514;2023-05-02T19:13:13;96348.88;;;9.38;87.50
20860;BME280;10590;48.154;11.514;2023-05-02T19:18:36;96351.84;;;9.37;86.88
20860;BME280;10590;48.154;11.514;2023-05-02T19:23:59;96362.50;;;9.18;87.20
20860;BME280;10590;48.154;11.514;2023-05-02T19:29:21;96358.59;;;9.10;87.53
20860;BME280;10590;48.154;11.514;2023-05-02T19:34:44;96359.59;;;8.96;87.65
20860;BME280;10590;48.154;11.514;2023-05-02T19:40:07;96361.13;;;9.02;87.86
20860;BME280;10590;48.154;11.514;2023-05-02T19:45:30;96368.03;;;9.03;87.51
20860;BME280;10590;48.154;11.514;2023-05-02T19:50:54;96370.59;;;8.89;87.52
20860;BME280;10590;48.154;11.514;2023-05-02T19:56:16;96378.25;;;8.72;88.50
20860;BME280;10590;48.154;11.514;2023-05-02T20:01:39;96380.44;;;8.41;89.38
20860;BME280;10590;48.154;11.514;2023-05-02T20:07:03;96383.97;;;8.02;91.44
20860;BME280;10590;48.154;11.514;2023-05-02T20:12:24;96390.22;;;8.45;89.26
20860;BME280;10590;48.154;11.514;2023-05-02T20:17:51;96390.91;;;8.56;88.69
20860;BME280;10590;48.154;11.514;2023-05-02T20:23:17;96392.22;;;8.01;90.88
20860;BME280;10590;48.154;11.514;2023-05-02T20:28:39;96401.94;;;8.15;90.20
20860;BME280;10590;48.154;11.514;2023-05-02T20:34:01;96405.94;;;7.79;90.73
20860;BME280;10590;48.154;11.514;2023-05-02T20:39:25;96397.69;;;8.14;89.39
20860;BME280;10590;48.154;11.514;2023-05-02T20:44:52;96395.50;;;8.21;88.32
20860;BME280;10590;48.154;11.514;2023-05-02T20:50:15;96397.16;;;7.83;89.68
20860;BME280;10590;48.154;11.514;2023-05-02T20:55:39;96400.47;;;7.65;90.46
20860;BME280;10590;48.154;11.514;2023-05-02T21:01:01;96392.31;;;7.51;90.41
20860;BME280;10590;48.154;11.514;2023-05-02T21:06:23;96389.94;;;7.50;90.99
20860;BME280;10590;48.154;11.514;2023-05-02T21:11:46;96398.25;;;7.38;91.70
20860;BME280;10590;48.154;11.514;2023-05-02T21:17:08;96399.63;;;7.30;91.71
20860;BME280;10590;48.154;11.514;2023-05-02T21:22:32;96396.53;;;7.57;90.62
20860;BME280;10590;48.154;11.514;2023-05-02T21:27:55;96392.41;;;7.75;89.64
20860;BME280;10590;48.154;11.514;2023-05-02T21:33:17;96399.84;;;7.39;90.38
20860;BME280;10590;48.154;11.514;2023-05-02T21:38:39;96396.16;;;7.74;89.33
20860;BME280;10590;48.154;11.514;2023-05-02T21:44:03;96393.13;;;7.52;89.11
20860;BME280;10590;48.154;11.514;2023-05-02T21:49:27;96380.88;;;7.56;88.38
20860;BME280;10590;48.154;11.514;2023-05-02T21:54:49;96377.78;;;7.44;88.83
20860;BME280;10590;48.154;11.514;2023-05-02T22:00:14;96386.53;;;7.44;88.73
20860;BME280;10590;48.154;11.514;2023-05-02T22:05:36;96389.72;;;6.92;90.17
20860;BME280;10590;48.154;11.514;2023-05-02T22:10:59;96391.50;;;7.12;89.44
20860;BME280;10590;48.154;11.514;2023-05-02T22:16:26;96395.69;;;7.23;89.15
20860;BME280;10590;48.154;11.514;2023-05-02T22:21:48;96385.63;;;7.20;89.13
20860;BME280;10590;48.154;11.514;2023-05-02T22:27:10;96390.44;;;7.13;89.02
20860;BME280;10590;48.154;11.514;2023-05-02T22:32:33;96388.03;;;7.16;90.62
20860;BME280;10590;48.154;11.514;2023-05-02T22:37:58;96387.38;;;6.80;90.34
20860;BME280;10590;48.154;11.514;2023-05-02T22:43:20;96391.59;;;6.86;90.36
20860;BME280;10590;48.154;11.514;2023-05-02T22:48:43;96397.06;;;7.15;90.41
20860;BME280;10590;48.154;11.514;2023-05-02T22:54:05;96395.19;;;7.16;90.11
20860;BME280;10590;48.154;11.514;2023-05-02T22:59:27;96401.28;;;6.52;91.92
20860;BME280;10590;48.154;11.514;2023-05-02T23:04:51;96405.97;;;6.75;91.15
20860;BME280;10590;48.154;11.514;2023-05-02T23:10:13;96395.81;;;6.92;89.83
20860;BME280;10590;48.154;11.514;2023-05-02T23:15:35;96396.69;;;6.78;90.32
20860;BME280;10590;48.154;11.514;2023-05-02T23:20:59;96400.06;;;6.98;89.76
20860;BME280;10590;48.154;11.514;2023-05-02T23:26:20;96399.78;;;7.05;89.25
20860;BME280;10590;48.154;11.514;2023-05-02T23:31:42;96392.91;;;6.99;89.23
20860;BME280;10590;48.154;11.514;2023-05-02T23:37:06;96389.34;;;6.54;90.75
20860;BME280;10590;48.154;11.514;2023-05-02T23:42:28;96388.09;;;6.31;91.45
20860;BME280;10590;48.154;11.514;2023-05-02T23:47:50;96395.25;;;6.00;93.04
20860;BME280;10590;48.154;11.514;2023-05-02T23:53:13;96390.97;;;6.45;91.38
20860;BME280;10590;48.154;11.514;2023-05-02T23:58:35;96383.84;;;6.25;91.21
